sensor_id;sensor_type;location;lat;lon;timestamp;P1;durP1;ratioP1;P2;durP2;ratioP2
14171;SDS011;7165;52.388;4.928;2023-07-31T01:15:01;15.85;;;6.35;;
14171;SDS011;7165;52.388;4.928;2023-07-31T01:17:30;20.67;;;6.95;;
14171;SDS011;7165;52.388;4.928;2023-07-31T01:19:59;21.38;;;7.90;;
14171;SDS011;7165;52.388;4.928;2023-07-31T01:22:31;15.35;;;8.13;;
14171;SDS011;7165;52.388;4.928;2023-07-31T01:25:11;13.82;;;7.75;;
14171;SDS011;7165;52.388;4.928;2023-07-31T01:27:51;18.27;;;7.72;;
14171;SDS011;7165;52.388;4.928;2023-07-31T01:30:25;16.75;;;7.05;;
14171;SDS011;7165;52.388;4.928;2023-07-31T01:32:58;17.10;;;8.95;;
14171;SDS011;7165;52.388;4.928;2023-07-31T01:35:27;19.10;;;8.13;;
14171;SDS011;7165;52.388;4.928;2023-07-31T01:37:54;16.40;;;7.32;;
14171;SDS011;7165;52.388;4.928;2023-07-31T01:55:02;23.58;;;9.25;;
14171;SDS011;7165;52.388;4.928;2023-07-31T01:57:29;18.67;;;8.05;;
14171;SDS011;7165;52.388;4.928;2023-07-31T02:14:39;24.17;;;9.10;;
14171;SDS011;7165;52.388;4.928;2023-07-31T02:17:07;20.35;;;8.98;;
14171;SDS011;7165;52.388;4.928;2023-07-31T02:19:34;19.38;;;8.60;;
14171;SDS011;7165;52.388;4.928;2023-07-31T02:22:00;24.23;;;9.38;;
14171;SDS011;7165;52.388;4.928;2023-07-31T02:24:27;16.02;;;8.07;;
14171;SDS011;7165;52.388;4.928;2023-07-31T02:26:54;19.45;;;10.23;;
14171;SDS011;7165;52.388;4.928;2023-07-31T02:29:21;25.13;;;9.13;;
14171;SDS011;7165;52.388;4.928;2023-07-31T02:31:47;21.33;;;8.75;;
14171;SDS011;7165;52.388;4.928;2023-07-31T02:34:15;18.40;;;9.57;;
14171;SDS011;7165;52.388;4.928;2023-07-31T02:36:42;22.95;;;10.25;;
14171;SDS011;7165;52.388;4.928;2023-07-31T02:39:09;20.00;;;9.13;;
14171;SDS011;7165;52.388;4.928;2023-07-31T02:41:35;16.42;;;8.10;;
14171;SDS011;7165;52.388;4.928;2023-07-31T02:44:02;21.90;;;10.07;;
14171;SDS011;7165;52.388;4.928;2023-07-31T02:46:29;16.27;;;8.65;;
14171;SDS011;7165;52.388;4.928;2023-07-31T02:48:56;19.08;;;9.60;;
14171;SDS011;7165;52.388;4.928;2023-07-31T02:51:24;19.08;;;7.90;;
14171;SDS011;7165;52.388;4.928;2023-07-31T02:53:51;18.75;;;9.20;;
14171;SDS011;7165;52.388;4.928;2023-07-31T02:56:18;16.70;;;9.05;;
14171;SDS011;7165;52.388;4.928;2023-07-31T02:58:44;19.17;;;8.93;;
14171;SDS011;7165;52.388;4.928;2023-07-31T03:01:11;21.75;;;9.75;;
14171;SDS011;7165;52.388;4.928;2023-07-31T03:03:38;28.08;;;8.95;;
14171;SDS011;7165;52.388;4.928;2023-07-31T03:06:04;18.75;;;8.23;;
14171;SDS011;7165;52.388;4.928;2023-07-31T03:08:32;20.90;;;8.82;;
14171;SDS011;7165;52.388;4.928;2023-07-31T03:10:59;19.13;;;8.57;;
14171;SDS011;7165;52.388;4.928;2023-07-31T03:13:26;17.83;;;9.07;;
14171;SDS011;7165;52.388;4.928;2023-07-31T03:15:52;16.30;;;8.30;;
14171;SDS011;7165;52.388;4.928;2023-07-31T03:18:19;19.52;;;9.07;;
14171;SDS011;7165;52.388;4.928;2023-07-31T03:20:46;17.13;;;7.95;;
14171;SDS011;7165;52.388;4.928;2023-07-31T03:23:12;17.88;;;9.25;;
14171;SDS011;7165;52.388;4.928;2023-07-31T03:25:41;17.02;;;8.63;;
14171;SDS011;7165;52.388;4.928;2023-07-31T03:28:21;21.15;;;9.73;;
14171;SDS011;7165;52.388;4.928;2023-07-31T03:30:48;15.40;;;8.55;;
14171;SDS011;7165;52.388;4.928;2023-07-31T03:33:15;23.38;;;8.00;;
14171;SDS011;7165;52.388;4.928;2023-07-31T03:35:41;19.70;;;8.52;;
14171;SDS011;7165;52.388;4.928;2023-07-31T03:38:08;20.08;;;8.70;;
14171;SDS011;7165;52.388;4.928;2023-07-31T03:40:35;22.70;;;10.52;;
14171;SDS011;7165;52.388;4.928;2023-07-31T03:45:29;16.33;;;8.63;;
14171;SDS011;7165;52.388;4.928;2023-07-31T03:47:56;17.15;;;8.32;;
14171;SDS011;7165;52.388;4.928;2023-07-31T03:50:23;17.45;;;8.80;;
14171;SDS011;7165;52.388;4.928;2023-07-31T03:55:16;24.42;;;9.75;;
14171;SDS011;7165;52.388;4.928;2023-07-31T03:57:44;15.30;;;8.48;;
14171;SDS011;7165;52.388;4.928;2023-07-31T04:00:13;22.17;;;8.48;;
14171;SDS011;7165;52.388;4.928;2023-07-31T04:02:40;19.23;;;9.68;;
14171;SDS011;7165;52.388;4.928;2023-07-31T04:05:06;24.95;;;9.57;;
14171;SDS011;7165;52.388;4.928;2023-07-31T04:07:34;22.45;;;9.63;;
14171;SDS011;7165;52.388;4.928;2023-07-31T04:10:01;24.95;;;8.52;;
14171;SDS011;7165;52.388;4.928;2023-07-31T04:12:28;24.27;;;9.55;;
14171;SDS011;7165;52.388;4.928;2023-07-31T04:14:55;24.17;;;9.27;;
14171;SDS011;7165;52.388;4.928;2023-07-31T04:19:49;17.83;;;8.23;;
14171;SDS011;7165;52.388;4.928;2023-07-31T04:22:16;17.17;;;8.45;;
14171;SDS011;7165;52.388;4.928;2023-07-31T04:24:43;16.87;;;7.43;;
14171;SDS011;7165;52.388;4.928;2023-07-31T04:27:10;20.30;;;9.25;;
14171;SDS011;7165;52.388;4.928;2023-07-31T04:29:36;21.20;;;7.95;;
14171;SDS011;7165;52.388;4.928;2023-07-31T04:32:05;19.33;;;8.07;;
14171;SDS011;7165;52.388;4.928;2023-07-31T04:34:33;17.40;;;8.07;;
14171;SDS011;7165;52.388;4.928;2023-07-31T04:37:00;22.90;;;9.60;;
14171;SDS011;7165;52.388;4.928;2023-07-31T04:39:26;18.70;;;8.80;;
14171;SDS011;7165;52.388;4.928;2023-07-31T04:44:20;13.27;;;6.43;;
14171;SDS011;7165;52.388;4.928;2023-07-31T04:46:46;9.82;;;5.47;;
14171;SDS011;7165;52.388;4.928;2023-07-31T04:49:13;14.27;;;5.30;;
14171;SDS011;7165;52.388;4.928;2023-07-31T04:51:41;13.80;;;6.35;;
14171;SDS011;7165;52.388;4.928;2023-07-31T04:54:08;9.13;;;5.20;;
14171;SDS011;7165;52.388;4.928;2023-07-31T04:56:37;10.02;;;4.70;;
14171;SDS011;7165;52.388;4.928;2023-07-31T04:59:04;11.00;;;5.47;;
14171;SDS011;7165;52.388;4.928;2023-07-31T05:01:31;9.40;;;4.88;;
14171;SDS011;7165;52.388;4.928;2023-07-31T05:03:57;9.37;;;4.63;;
14171;SDS011;7165;52.388;4.928;2023-07-31T05:35:51;2.20;;;1.88;;
14171;SDS011;7165;52.388;4.928;2023-07-31T06:34:36;1.10;;;1.10;;
14171;SDS011;7165;52.388;4.928;2023-07-31T06:37:03;1.52;;;1.42;;
14171;SDS011;7165;52.388;4.928;2023-07-31T06:39:30;1.40;;;1.30;;
14171;SDS011;7165;52.388;4.928;2023-07-31T06:41:57;1.60;;;1.50;;
14171;SDS011;7165;52.388;4.928;2023-07-31T06:44:24;1.10;;;1.10;;
14171;SDS011;7165;52.388;4.928;2023-07-31T06:46:51;1.55;;;1.45;;
14171;SDS011;7165;52.388;4.928;2023-07-31T06:49:17;1.00;;;1.00;;
14171;SDS011;7165;52.388;4.928;2023-07-31T06:51:45;2.78;;;1.38;;
14171;SDS011;7165;52.388;4.928;2023-07-31T06:54:12;1.20;;;1.20;;
14171;SDS011;7165;52.388;4.928;2023-07-31T06:56:39;1.42;;;1.20;;
14171;SDS011;7165;52.388;4.928;2023-07-31T06:59:06;1.20;;;1.10;;
14171;SDS011;7165;52.388;4.928;2023-07-31T07:06:26;1.20;;;1.20;;
14171;SDS011;7165;52.388;4.928;2023-07-31T07:08:54;1.50;;;1.38;;
14171;SDS011;7165;52.388;4.928;2023-07-31T07:16:14;1.80;;;1.60;;
14171;SDS011;7165;52.388;4.928;2023-07-31T07:18:41;2.10;;;1.90;;
14171;SDS011;7165;52.388;4.928;2023-07-31T07:21:08;2.10;;;1.85;;
14171;SDS011;7165;52.388;4.928;2023-07-31T07:23:34;2.83;;;1.40;;
14171;SDS011;7165;52.388;4.928;2023-07-31T07:26:02;2.30;;;2.10;;
14171;SDS011;7165;52.388;4.928;2023-07-31T07:28:29;2.72;;;2.10;;
14171;SDS011;7165;52.388;4.928;2023-07-31T07:30:56;2.25;;;1.75;;
14171;SDS011;7165;52.388;4.928;2023-07-31T07:33:23;4.78;;;2.83;;
14171;SDS011;7165;52.388;4.928;2023-07-31T07:35:49;3.28;;;2.30;;
14171;SDS011;7165;52.388;4.928;2023-07-31T07:38:16;4.85;;;2.40;;
14171;SDS011;7165;52.388;4.928;2023-07-31T07:40:44;5.00;;;2.40;;
14171;SDS011;7165;52.388;4.928;2023-07-31T07:43:13;5.05;;;2.70;;
14171;SDS011;7165;52.388;4.928;2023-07-31T07:45:39;6.22;;;2.65;;
14171;SDS011;7165;52.388;4.928;2023-07-31T07:48:06;7.20;;;3.38;;
14171;SDS011;7165;52.388;4.928;2023-07-31T07:50:33;4.15;;;2.92;;
14171;SDS011;7165;52.388;4.928;2023-07-31T07:52:59;4.20;;;2.85;;
14171;SDS011;7165;52.388;4.928;2023-07-31T07:55:26;4.90;;;2.95;;
14171;SDS011;7165;52.388;4.928;2023-07-31T07:57:53;4.40;;;2.50;;
14171;SDS011;7165;52.388;4.928;2023-07-31T08:00:21;4.28;;;2.90;;
14171;SDS011;7165;52.388;4.928;2023-07-31T08:02:47;3.60;;;2.30;;
14171;SDS011;7165;52.388;4.928;2023-07-31T08:05:14;5.25;;;2.65;;
14171;SDS011;7165;52.388;4.928;2023-07-31T08:07:42;3.75;;;2.63;;
14171;SDS011;7165;52.388;4.928;2023-07-31T08:10:09;6.75;;;3.45;;
14171;SDS011;7165;52.388;4.928;2023-07-31T08:12:36;3.65;;;2.45;;
14171;SDS011;7165;52.388;4.928;2023-07-31T08:15:03;3.60;;;2.17;;
14171;SDS011;7165;52.388;4.928;2023-07-31T08:17:31;6.28;;;2.50;;
14171;SDS011;7165;52.388;4.928;2023-07-31T08:19:58;4.50;;;2.20;;
14171;SDS011;7165;52.388;4.928;2023-07-31T08:22:24;4.40;;;2.70;;
14171;SDS011;7165;52.388;4.928;2023-07-31T08:39:33;7.03;;;2.53;;
14171;SDS011;7165;52.388;4.928;2023-07-31T08:42:00;8.13;;;3.40;;
14171;SDS011;7165;52.388;4.928;2023-07-31T08:44:26;4.70;;;2.70;;
14171;SDS011;7165;52.388;4.928;2023-07-31T08:54:18;5.05;;;2.72;;
14171;SDS011;7165;52.388;4.928;2023-07-31T08:56:45;5.53;;;2.57;;
14171;SDS011;7165;52.388;4.928;2023-07-31T08:59:12;4.40;;;2.50;;
14171;SDS011;7165;52.388;4.928;2023-07-31T09:04:09;6.90;;;2.92;;
14171;SDS011;7165;52.388;4.928;2023-07-31T09:06:39;7.40;;;2.75;;
14171;SDS011;7165;52.388;4.928;2023-07-31T09:09:08;10.02;;;3.30;;
14171;SDS011;7165;52.388;4.928;2023-07-31T09:11:34;6.13;;;3.25;;
14171;SDS011;7165;52.388;4.928;2023-07-31T09:14:01;10.85;;;3.40;;
14171;SDS011;7165;52.388;4.928;2023-07-31T09:16:33;14.38;;;4.00;;
14171;SDS011;7165;52.388;4.928;2023-07-31T09:19:00;8.55;;;4.15;;
14171;SDS011;7165;52.388;4.928;2023-07-31T09:21:28;10.63;;;4.32;;
14171;SDS011;7165;52.388;4.928;2023-07-31T09:23:55;10.15;;;4.40;;
14171;SDS011;7165;52.388;4.928;2023-07-31T09:26:33;10.13;;;4.20;;
14171;SDS011;7165;52.388;4.928;2023-07-31T09:29:00;11.10;;;3.80;;
14171;SDS011;7165;52.388;4.928;2023-07-31T09:31:33;9.55;;;4.15;;
14171;SDS011;7165;52.388;4.928;2023-07-31T09:34:10;9.48;;;4.03;;
14171;SDS011;7165;52.388;4.928;2023-07-31T09:36:42;7.35;;;4.20;;
14171;SDS011;7165;52.388;4.928;2023-07-31T09:39:09;9.70;;;4.50;;
14171;SDS011;7165;52.388;4.928;2023-07-31T09:41:38;10.93;;;3.40;;
14171;SDS011;7165;52.388;4.928;2023-07-31T09:44:06;15.13;;;5.05;;
14171;SDS011;7165;52.388;4.928;2023-07-31T09:46:34;10.48;;;4.18;;
14171;SDS011;7165;52.388;4.928;2023-07-31T09:49:05;12.13;;;4.50;;
14171;SDS011;7165;52.388;4.928;2023-07-31T09:51:34;10.05;;;3.47;;
14171;SDS011;7165;52.388;4.928;2023-07-31T09:54:03;10.98;;;3.78;;
14171;SDS011;7165;52.388;4.928;2023-07-31T09:56:35;7.43;;;3.58;;
14171;SDS011;7165;52.388;4.928;2023-07-31T09:59:05;7.40;;;4.05;;
14171;SDS011;7165;52.388;4.928;2023-07-31T10:01:32;5.57;;;3.42;;
14171;SDS011;7165;52.388;4.928;2023-07-31T10:03:59;8.63;;;3.90;;
14171;SDS011;7165;52.388;4.928;2023-07-31T10:06:27;11.48;;;3.85;;
14171;SDS011;7165;52.388;4.928;2023-07-31T10:08:55;7.80;;;3.50;;
14171;SDS011;7165;52.388;4.928;2023-07-31T10:11:23;12.57;;;5.03;;
14171;SDS011;7165;52.388;4.928;2023-07-31T10:13:53;11.05;;;4.57;;
14171;SDS011;7165;52.388;4.928;2023-07-31T10:16:22;8.18;;;3.58;;
14171;SDS011;7165;52.388;4.928;2023-07-31T10:18:49;10.95;;;4.07;;
14171;SDS011;7165;52.388;4.928;2023-07-31T10:21:17;11.98;;;3.90;;
14171;SDS011;7165;52.388;4.928;2023-07-31T10:23:44;8.02;;;3.70;;
14171;SDS011;7165;52.388;4.928;2023-07-31T10:26:11;8.90;;;3.20;;
14171;SDS011;7165;52.388;4.928;2023-07-31T10:28:40;7.75;;;3.63;;
14171;SDS011;7165;52.388;4.928;2023-07-31T10:31:07;9.52;;;3.58;;
14171;SDS011;7165;52.388;4.928;2023-07-31T10:33:36;7.97;;;3.47;;
14171;SDS011;7165;52.388;4.928;2023-07-31T10:36:12;6.75;;;3.05;;
14171;SDS011;7165;52.388;4.928;2023-07-31T10:38:40;9.98;;;3.53;;
14171;SDS011;7165;52.388;4.928;2023-07-31T10:41:10;7.70;;;3.58;;
14171;SDS011;7165;52.388;4.928;2023-07-31T10:43:37;7.15;;;4.18;;
14171;SDS011;7165;52.388;4.928;2023-07-31T10:46:06;8.73;;;3.40;;
14171;SDS011;7165;52.388;4.928;2023-07-31T10:48:35;7.60;;;3.58;;
14171;SDS011;7165;52.388;4.928;2023-07-31T10:51:06;11.02;;;3.40;;
14171;SDS011;7165;52.388;4.928;2023-07-31T10:53:36;6.05;;;3.15;;
14171;SDS011;7165;52.388;4.928;2023-07-31T10:56:03;9.68;;;3.15;;
14171;SDS011;7165;52.388;4.928;2023-07-31T10:58:30;11.10;;;3.50;;
14171;SDS011;7165;52.388;4.928;2023-07-31T11:00:59;6.93;;;3.65;;
14171;SDS011;7165;52.388;4.928;2023-07-31T11:03:41;8.18;;;3.78;;
14171;SDS011;7165;52.388;4.928;2023-07-31T11:06:09;9.75;;;3.72;;
14171;SDS011;7165;52.388;4.928;2023-07-31T11:08:41;7.32;;;4.18;;
14171;SDS011;7165;52.388;4.928;2023-07-31T11:11:09;7.53;;;3.20;;
14171;SDS011;7165;52.388;4.928;2023-07-31T11:13:40;8.88;;;3.53;;
14171;SDS011;7165;52.388;4.928;2023-07-31T11:16:09;12.13;;;4.43;;
14171;SDS011;7165;52.388;4.928;2023-07-31T11:18:38;8.93;;;4.28;;
14171;SDS011;7165;52.388;4.928;2023-07-31T11:21:06;8.40;;;4.05;;
14171;SDS011;7165;52.388;4.928;2023-07-31T11:23:33;7.78;;;3.83;;
14171;SDS011;7165;52.388;4.928;2023-07-31T11:26:04;7.63;;;3.95;;
14171;SDS011;7165;52.388;4.928;2023-07-31T11:28:32;8.30;;;3.83;;
14171;SDS011;7165;52.388;4.928;2023-07-31T11:31:00;8.85;;;3.90;;
14171;SDS011;7165;52.388;4.928;2023-07-31T11:33:27;9.85;;;4.00;;
14171;SDS011;7165;52.388;4.928;2023-07-31T11:35:54;6.85;;;3.67;;
14171;SDS011;7165;52.388;4.928;2023-07-31T11:38:22;8.77;;;3.65;;
14171;SDS011;7165;52.388;4.928;2023-07-31T11:40:50;8.23;;;3.92;;
14171;SDS011;7165;52.388;4.928;2023-07-31T11:43:17;10.05;;;3.97;;
14171;SDS011;7165;52.388;4.928;2023-07-31T11:45:46;7.03;;;3.30;;
14171;SDS011;7165;52.388;4.928;2023-07-31T11:48:18;5.97;;;3.00;;
14171;SDS011;7165;52.388;4.928;2023-07-31T11:50:49;5.35;;;3.00;;
14171;SDS011;7165;52.388;4.928;2023-07-31T11:53:17;8.43;;;3.63;;
14171;SDS011;7165;52.388;4.928;2023-07-31T11:55:48;6.57;;;3.20;;
14171;SDS011;7165;52.388;4.928;2023-07-31T11:58:16;6.85;;;2.92;;
14171;SDS011;7165;52.388;4.928;2023-07-31T12:00:44;5.78;;;2.85;;
14171;SDS011;7165;52.388;4.928;2023-07-31T12:03:11;5.50;;;3.30;;
14171;SDS011;7165;52.388;4.928;2023-07-31T12:05:38;6.30;;;3.05;;
14171;SDS011;7165;52.388;4.928;2023-07-31T12:08:08;9.40;;;3.90;;
14171;SDS011;7165;52.388;4.928;2023-07-31T12:10:35;7.18;;;3.67;;
14171;SDS011;7165;52.388;4.928;2023-07-31T12:13:04;7.97;;;3.17;;
14171;SDS011;7165;52.388;4.928;2023-07-31T12:15:32;10.38;;;3.55;;
14171;SDS011;7165;52.388;4.928;2023-07-31T12:18:00;6.78;;;3.40;;
14171;SDS011;7165;52.388;4.928;2023-07-31T12:20:31;6.03;;;3.08;;
14171;SDS011;7165;52.388;4.928;2023-07-31T12:22:58;6.53;;;3.65;;
14171;SDS011;7165;52.388;4.928;2023-07-31T12:25:29;9.55;;;3.47;;
14171;SDS011;7165;52.388;4.928;2023-07-31T12:27:56;6.38;;;3.30;;
14171;SDS011;7165;52.388;4.928;2023-07-31T12:30:28;8.80;;;3.08;;
14171;SDS011;7165;52.388;4.928;2023-07-31T12:32:55;4.80;;;2.85;;
14171;SDS011;7165;52.388;4.928;2023-07-31T12:35:22;4.95;;;2.63;;
14171;SDS011;7165;52.388;4.928;2023-07-31T12:37:49;11.07;;;3.65;;
14171;SDS011;7165;52.388;4.928;2023-07-31T12:40:15;4.35;;;3.13;;
14171;SDS011;7165;52.388;4.928;2023-07-31T12:42:42;5.97;;;2.90;;
14171;SDS011;7165;52.388;4.928;2023-07-31T12:45:09;8.88;;;4.00;;
14171;SDS011;7165;52.388;4.928;2023-07-31T12:47:37;7.93;;;3.75;;
14171;SDS011;7165;52.388;4.928;2023-07-31T12:50:04;5.47;;;3.28;;
14171;SDS011;7165;52.388;4.928;2023-07-31T12:52:31;6.78;;;3.03;;
14171;SDS011;7165;52.388;4.928;2023-07-31T12:54:58;5.03;;;2.97;;
14171;SDS011;7165;52.388;4.928;2023-07-31T12:57:25;5.18;;;2.92;;
14171;SDS011;7165;52.388;4.928;2023-07-31T12:59:52;5.88;;;3.33;;
14171;SDS011;7165;52.388;4.928;2023-07-31T13:02:18;5.47;;;3.38;;
14171;SDS011;7165;52.388;4.928;2023-07-31T13:04:46;5.32;;;2.58;;
14171;SDS011;7165;52.388;4.928;2023-07-31T13:07:13;3.40;;;2.33;;
14171;SDS011;7165;52.388;4.928;2023-07-31T13:09:40;3.67;;;2.72;;
14171;SDS011;7165;52.388;4.928;2023-07-31T13:12:07;6.05;;;3.10;;
14171;SDS011;7165;52.388;4.928;2023-07-31T13:14:34;6.03;;;2.60;;
14171;SDS011;7165;52.388;4.928;2023-07-31T13:17:00;4.82;;;2.60;;
14171;SDS011;7165;52.388;4.928;2023-07-31T13:19:27;5.07;;;3.00;;
14171;SDS011;7165;52.388;4.928;2023-07-31T13:21:55;5.63;;;2.53;;
14171;SDS011;7165;52.388;4.928;2023-07-31T13:24:22;3.95;;;2.63;;
14171;SDS011;7165;52.388;4.928;2023-07-31T13:26:48;4.45;;;2.85;;
14171;SDS011;7165;52.388;4.928;2023-07-31T13:29:15;6.63;;;3.42;;
14171;SDS011;7165;52.388;4.928;2023-07-31T13:31:42;3.85;;;2.70;;
14171;SDS011;7165;52.388;4.928;2023-07-31T13:34:08;4.38;;;2.72;;
14171;SDS011;7165;52.388;4.928;2023-07-31T13:36:35;5.15;;;2.70;;
14171;SDS011;7165;52.388;4.928;2023-07-31T13:39:03;7.05;;;2.67;;
14171;SDS011;7165;52.388;4.928;2023-07-31T13:41:30;6.10;;;2.85;;
14171;SDS011;7165;52.388;4.928;2023-07-31T13:43:57;4.72;;;2.10;;
14171;SDS011;7165;52.388;4.928;2023-07-31T13:46:23;4.05;;;1.83;;
14171;SDS011;7165;52.388;4.928;2023-07-31T13:48:50;3.85;;;2.03;;
14171;SDS011;7165;52.388;4.928;2023-07-31T13:51:19;4.63;;;2.03;;
14171;SDS011;7165;52.388;4.928;2023-07-31T13:53:46;2.72;;;1.83;;
14171;SDS011;7165;52.388;4.928;2023-07-31T13:56:14;3.25;;;1.98;;
14171;SDS011;7165;52.388;4.928;2023-07-31T13:58:41;2.80;;;1.95;;
14171;SDS011;7165;52.388;4.928;2023-07-31T14:01:07;2.88;;;1.77;;
14171;SDS011;7165;52.388;4.928;2023-07-31T14:03:34;2.17;;;1.85;;
14171;SDS011;7165;52.388;4.928;2023-07-31T14:06:01;4.10;;;1.48;;
14171;SDS011;7165;52.388;4.928;2023-07-31T14:08:29;2.45;;;1.60;;
14171;SDS011;7165;52.388;4.928;2023-07-31T14:10:56;3.25;;;2.03;;
14171;SDS011;7165;52.388;4.928;2023-07-31T14:13:24;2.70;;;1.50;;
14171;SDS011;7165;52.388;4.928;2023-07-31T14:15:50;1.65;;;1.48;;
14171;SDS011;7165;52.388;4.928;2023-07-31T14:18:18;2.25;;;1.58;;
14171;SDS011;7165;52.388;4.928;2023-07-31T14:20:44;3.38;;;2.03;;
14171;SDS011;7165;52.388;4.928;2023-07-31T14:23:11;5.55;;;2.85;;
14171;SDS011;7165;52.388;4.928;2023-07-31T14:25:38;5.43;;;2.10;;
14171;SDS011;7165;52.388;4.928;2023-07-31T14:28:05;3.45;;;2.10;;
14171;SDS011;7165;52.388;4.928;2023-07-31T14:30:33;5.57;;;3.38;;
14171;SDS011;7165;52.388;4.928;2023-07-31T14:32:59;3.95;;;2.42;;
14171;SDS011;7165;52.388;4.928;2023-07-31T14:35:27;6.20;;;2.58;;
14171;SDS011;7165;52.388;4.928;2023-07-31T14:37:54;4.35;;;2.75;;
14171;SDS011;7165;52.388;4.928;2023-07-31T14:40:21;4.50;;;3.20;;
14171;SDS011;7165;52.388;4.928;2023-07-31T14:42:47;9.23;;;3.75;;
14171;SDS011;7165;52.388;4.928;2023-07-31T14:45:14;8.70;;;3.83;;
14171;SDS011;7165;52.388;4.928;2023-07-31T14:47:42;7.88;;;3.45;;
14171;SDS011;7165;52.388;4.928;2023-07-31T14:50:09;8.00;;;3.70;;
14171;SDS011;7165;52.388;4.928;2023-07-31T14:52:36;4.60;;;3.30;;
14171;SDS011;7165;52.388;4.928;2023-07-31T14:55:03;9.27;;;3.60;;
14171;SDS011;7165;52.388;4.928;2023-07-31T14:57:31;6.80;;;4.55;;
14171;SDS011;7165;52.388;4.928;2023-07-31T14:59:57;12.23;;;4.30;;
14171;SDS011;7165;52.388;4.928;2023-07-31T15:02:25;8.80;;;3.20;;
14171;SDS011;7165;52.388;4.928;2023-07-31T15:04:54;5.95;;;3.70;;
14171;SDS011;7165;52.388;4.928;2023-07-31T15:07:20;8.20;;;3.85;;
14171;SDS011;7165;52.388;4.928;2023-07-31T15:09:47;6.40;;;3.20;;
14171;SDS011;7165;52.388;4.928;2023-07-31T15:12:14;8.80;;;3.63;;
14171;SDS011;7165;52.388;4.928;2023-07-31T15:14:40;7.93;;;3.80;;
14171;SDS011;7165;52.388;4.928;2023-07-31T15:17:07;6.15;;;3.15;;
14171;SDS011;7165;52.388;4.928;2023-07-31T15:19:34;6.80;;;3.10;;
14171;SDS011;7165;52.388;4.928;2023-07-31T15:22:03;9.32;;;3.53;;
14171;SDS011;7165;52.388;4.928;2023-07-31T15:24:30;7.88;;;3.33;;
14171;SDS011;7165;52.388;4.928;2023-07-31T15:26:57;7.82;;;3.30;;
14171;SDS011;7165;52.388;4.928;2023-07-31T15:29:26;5.43;;;2.90;;
14171;SDS011;7165;52.388;4.928;2023-07-31T15:31:53;6.55;;;2.50;;
14171;SDS011;7165;52.388;4.928;2023-07-31T15:34:20;5.63;;;2.88;;
14171;SDS011;7165;52.388;4.928;2023-07-31T15:36:47;5.18;;;2.30;;
14171;SDS011;7165;52.388;4.928;2023-07-31T15:39:15;4.35;;;2.95;;
14171;SDS011;7165;52.388;4.928;2023-07-31T15:41:42;5.18;;;2.88;;
14171;SDS011;7165;52.388;4.928;2023-07-31T15:44:08;5.18;;;3.15;;
14171;SDS011;7165;52.388;4.928;2023-07-31T15:46:35;7.20;;;2.50;;
14171;SDS011;7165;52.388;4.928;2023-07-31T15:49:02;2.88;;;1.90;;
14171;SDS011;7165;52.388;4.928;2023-07-31T15:51:28;6.00;;;2.42;;
14171;SDS011;7165;52.388;4.928;2023-07-31T15:53:55;2.85;;;2.10;;
14171;SDS011;7165;52.388;4.928;2023-07-31T15:56:23;4.38;;;2.42;;
14171;SDS011;7165;52.388;4.928;2023-07-31T15:58:50;4.43;;;2.67;;
14171;SDS011;7165;52.388;4.928;2023-07-31T16:01:16;8.70;;;2.97;;
14171;SDS011;7165;52.388;4.928;2023-07-31T16:03:43;5.25;;;2.60;;
14171;SDS011;7165;52.388;4.928;2023-07-31T16:06:10;4.03;;;2.63;;
14171;SDS011;7165;52.388;4.928;2023-07-31T16:08:37;5.93;;;2.33;;
14171;SDS011;7165;52.388;4.928;2023-07-31T16:11:06;4.10;;;2.22;;
14171;SDS011;7165;52.388;4.928;2023-07-31T16:13:34;3.13;;;2.00;;
14171;SDS011;7165;52.388;4.928;2023-07-31T16:16:01;2.80;;;2.30;;
14171;SDS011;7165;52.388;4.928;2023-07-31T16:18:28;4.28;;;2.20;;
14171;SDS011;7165;52.388;4.928;2023-07-31T16:20:55;3.83;;;1.80;;
14171;SDS011;7165;52.388;4.928;2023-07-31T16:23:22;2.00;;;1.80;;
14171;SDS011;7165;52.388;4.928;2023-07-31T16:25:49;6.57;;;2.42;;
14171;SDS011;7165;52.388;4.928;2023-07-31T16:28:15;4.47;;;2.00;;
14171;SDS011;7165;52.388;4.928;2023-07-31T16:30:43;4.55;;;2.70;;
14171;SDS011;7165;52.388;4.928;2023-07-31T16:33:11;4.65;;;3.05;;
14171;SDS011;7165;52.388;4.928;2023-07-31T16:35:40;4.05;;;2.60;;
14171;SDS011;7165;52.388;4.928;2023-07-31T16:38:06;5.78;;;2.28;;
14171;SDS011;7165;52.388;4.928;2023-07-31T16:40:33;4.18;;;2.80;;
14171;SDS011;7165;52.388;4.928;2023-07-31T16:43:00;6.93;;;3.47;;
14171;SDS011;7165;52.388;4.928;2023-07-31T16:45:27;5.90;;;3.42;;
14171;SDS011;7165;52.388;4.928;2023-07-31T16:47:54;7.32;;;3.92;;
14171;SDS011;7165;52.388;4.928;2023-07-31T16:50:21;7.50;;;3.10;;
14171;SDS011;7165;52.388;4.928;2023-07-31T16:52:48;9.30;;;3.60;;
14171;SDS011;7165;52.388;4.928;2023-07-31T16:55:15;6.43;;;3.20;;
14171;SDS011;7165;52.388;4.928;2023-07-31T16:57:42;6.65;;;3.13;;
14171;SDS011;7165;52.388;4.928;2023-07-31T17:00:09;8.60;;;3.80;;
14171;SDS011;7165;52.388;4.928;2023-07-31T17:02:37;8.32;;;3.00;;
14171;SDS011;7165;52.388;4.928;2023-07-31T17:05:05;10.02;;;3.88;;
14171;SDS011;7165;52.388;4.928;2023-07-31T17:07:33;7.50;;;3.63;;
14171;SDS011;7165;52.388;4.928;2023-07-31T17:10:00;9.98;;;3.90;;
14171;SDS011;7165;52.388;4.928;2023-07-31T17:12:27;8.57;;;3.67;;
14171;SDS011;7165;52.388;4.928;2023-07-31T17:14:53;9.75;;;4.00;;
14171;SDS011;7165;52.388;4.928;2023-07-31T17:17:20;9.15;;;3.72;;
14171;SDS011;7165;52.388;4.928;2023-07-31T17:19:48;7.40;;;3.80;;
14171;SDS011;7165;52.388;4.928;2023-07-31T17:22:16;6.63;;;3.70;;
14171;SDS011;7165;52.388;4.928;2023-07-31T17:24:43;8.63;;;3.95;;
14171;SDS011;7165;52.388;4.928;2023-07-31T17:27:09;12.32;;;4.53;;
14171;SDS011;7165;52.388;4.928;2023-07-31T17:29:36;6.47;;;3.35;;
14171;SDS011;7165;52.388;4.928;2023-07-31T17:32:03;6.88;;;3.65;;
14171;SDS011;7165;52.388;4.928;2023-07-31T17:34:30;8.65;;;4.22;;
14171;SDS011;7165;52.388;4.928;2023-07-31T17:36:58;8.70;;;5.25;;
14171;SDS011;7165;52.388;4.928;2023-07-31T17:39:26;9.43;;;4.03;;
14171;SDS011;7165;52.388;4.928;2023-07-31T17:41:53;9.75;;;4.57;;
14171;SDS011;7165;52.388;4.928;2023-07-31T17:44:20;8.50;;;3.92;;
14171;SDS011;7165;52.388;4.928;2023-07-31T17:46:47;9.73;;;4.13;;
14171;SDS011;7165;52.388;4.928;2023-07-31T17:49:14;6.65;;;3.20;;
14171;SDS011;7165;52.388;4.928;2023-07-31T17:51:41;5.97;;;2.80;;
14171;SDS011;7165;52.388;4.928;2023-07-31T17:54:07;6.65;;;3.10;;
14171;SDS011;7165;52.388;4.928;2023-07-31T17:56:35;5.53;;;2.75;;
14171;SDS011;7165;52.388;4.928;2023-07-31T17:59:02;7.05;;;3.75;;
14171;SDS011;7165;52.388;4.928;2023-07-31T18:01:29;5.78;;;3.17;;
14171;SDS011;7165;52.388;4.928;2023-07-31T18:03:56;6.05;;;2.92;;
14171;SDS011;7165;52.388;4.928;2023-07-31T18:06:23;6.85;;;2.60;;
14171;SDS011;7165;52.388;4.928;2023-07-31T18:08:50;6.82;;;2.88;;
14171;SDS011;7165;52.388;4.928;2023-07-31T18:11:16;5.15;;;2.90;;
14171;SDS011;7165;52.388;4.928;2023-07-31T18:13:46;5.10;;;2.75;;
14171;SDS011;7165;52.388;4.928;2023-07-31T18:16:13;4.20;;;2.55;;
14171;SDS011;7165;52.388;4.928;2023-07-31T18:18:40;5.00;;;2.90;;
14171;SDS011;7165;52.388;4.928;2023-07-31T18:21:06;6.78;;;2.75;;
14171;SDS011;7165;52.388;4.928;2023-07-31T18:23:34;9.50;;;2.97;;
14171;SDS011;7165;52.388;4.928;2023-07-31T18:26:01;8.55;;;3.05;;
14171;SDS011;7165;52.388;4.928;2023-07-31T18:28:27;5.35;;;2.97;;
14171;SDS011;7165;52.388;4.928;2023-07-31T18:30:59;3.65;;;2.20;;
14171;SDS011;7165;52.388;4.928;2023-07-31T18:33:26;6.60;;;3.78;;
14171;SDS011;7165;52.388;4.928;2023-07-31T18:35:53;5.50;;;3.60;;
14171;SDS011;7165;52.388;4.928;2023-07-31T18:38:20;6.75;;;2.80;;
14171;SDS011;7165;52.388;4.928;2023-07-31T18:40:46;6.10;;;3.08;;
14171;SDS011;7165;52.388;4.928;2023-07-31T18:43:13;6.68;;;3.35;;
14171;SDS011;7165;52.388;4.928;2023-07-31T18:45:40;5.20;;;3.28;;
14171;SDS011;7165;52.388;4.928;2023-07-31T18:48:08;10.02;;;3.78;;
14171;SDS011;7165;52.388;4.928;2023-07-31T18:50:39;8.40;;;3.75;;
14171;SDS011;7165;52.388;4.928;2023-07-31T18:53:07;4.40;;;2.95;;